createdAt,value
2023-08-06T00:01:06.801Z,18.92
2023-08-06T00:03:36.006Z,18.87
2023-08-06T00:06:07.242Z,18.82
2023-08-06T00:08:36.216Z,18.83
2023-08-06T00:11:05.289Z,18.78
2023-08-06T00:13:34.261Z,18.75
2023-08-06T00:16:13.144Z,18.66
2023-08-06T00:18:42.954Z,18.62
2023-08-06T00:21:13.556Z,18.58
2023-08-06T00:23:43.284Z,18.55
2023-08-06T00:26:12.532Z,18.51
2023-08-06T00:28:41.587Z,18.54
2023-08-06T00:31:12.086Z,18.46
2023-08-06T00:33:41.095Z,18.38
2023-08-06T00:36:10.105Z,18.46
2023-08-06T00:38:39.167Z,18.53
2023-08-06T00:41:08.221Z,18.59
2023-08-06T00:43:37.326Z,18.53
2023-08-06T00:46:06.845Z,18.46
2023-08-06T00:48:37.756Z,18.43
2023-08-06T00:51:07.035Z,18.38
2023-08-06T00:53:36.148Z,18.38
2023-08-06T00:56:06.711Z,18.35
2023-08-06T00:58:37.473Z,18.34
2023-08-06T01:01:06.776Z,18.31
2023-08-06T01:03:37.234Z,18.32
2023-08-06T01:06:07.027Z,18.33
2023-08-06T01:08:51.289Z,18.33
2023-08-06T01:11:29.223Z,18.37
2023-08-06T01:14:09.895Z,18.41
2023-08-06T01:16:41.156Z,18.42
2023-08-06T01:19:20.276Z,18.43
2023-08-06T01:21:51.184Z,18.45
2023-08-06T01:24:20.454Z,18.42
2023-08-06T01:27:04.924Z,18.43
2023-08-06T01:29:38.354Z,18.35
2023-08-06T01:32:11.314Z,18.35
2023-08-06T01:34:43.018Z,18.43
2023-08-06T01:37:14.982Z,18.44
2023-08-06T01:39:45.736Z,18.45
2023-08-06T01:42:15.152Z,18.52
2023-08-06T01:44:44.214Z,18.50
2023-08-06T01:47:13.741Z,18.47
2023-08-06T01:49:42.774Z,18.58
2023-08-06T01:52:11.858Z,18.74
2023-08-06T01:54:42.259Z,18.95
2023-08-06T01:57:11.332Z,19.21
2023-08-06T01:59:40.358Z,19.53
2023-08-06T02:02:10.433Z,19.85
2023-08-06T02:04:42.403Z,20.26
2023-08-06T02:07:11.425Z,20.69
2023-08-06T02:09:41.761Z,21.07
2023-08-06T02:12:11.122Z,21.54
2023-08-06T02:14:40.155Z,21.95
2023-08-06T02:17:09.155Z,22.26
2023-08-06T02:19:38.138Z,22.53
2023-08-06T02:22:07.739Z,22.80
2023-08-06T02:24:36.772Z,23.01
2023-08-06T02:27:07.622Z,23.37
2023-08-06T02:29:36.635Z,23.74
2023-08-06T02:32:06.258Z,24.13
2023-08-06T02:34:35.964Z,24.37
2023-08-06T02:37:05.162Z,25.02
2023-08-06T02:39:34.888Z,25.46
2023-08-06T02:42:04.735Z,25.42
2023-08-06T02:44:35.993Z,25.84
2023-08-06T02:47:05.356Z,25.91
2023-08-06T02:49:34.437Z,26.03
2023-08-06T02:52:03.425Z,26.58
2023-08-06T02:54:32.502Z,26.58
2023-08-06T02:57:02.690Z,26.82
2023-08-06T02:59:35.860Z,26.73
2023-08-06T03:02:12.250Z,25.30
2023-08-06T03:05:05.929Z,24.06
2023-08-06T03:07:38.805Z,23.55
2023-08-06T03:10:22.823Z,23.25
2023-08-06T03:12:54.459Z,23.09
2023-08-06T03:15:25.804Z,23.21
2023-08-06T03:17:58.730Z,23.23
2023-08-06T03:20:28.713Z,23.42
2023-08-06T03:22:57.754Z,23.56
2023-08-06T03:25:26.777Z,23.69
2023-08-06T03:27:56.180Z,23.86
2023-08-06T03:30:26.900Z,23.78
2023-08-06T03:32:57.353Z,24.10
2023-08-06T03:35:27.250Z,24.12
2023-08-06T03:37:56.522Z,24.08
2023-08-06T03:40:25.643Z,24.16
2023-08-06T03:42:54.777Z,24.20
2023-08-06T03:45:23.821Z,24.21
2023-08-06T03:47:54.793Z,24.27
2023-08-06T03:50:24.203Z,24.21
2023-08-06T03:52:54.410Z,24.25
2023-08-06T03:55:24.460Z,24.37
2023-08-06T03:57:53.464Z,24.50
2023-08-06T04:00:22.778Z,24.62
2023-08-06T04:02:56.972Z,24.73
2023-08-06T04:05:26.245Z,24.88
2023-08-06T04:07:55.305Z,24.88
2023-08-06T04:10:24.451Z,25.00
2023-08-06T04:12:53.606Z,25.02
2023-08-06T04:15:22.656Z,24.91
2023-08-06T04:17:51.731Z,24.77
2023-08-06T04:20:22.432Z,24.67
2023-08-06T04:22:51.622Z,24.58
2023-08-06T04:25:22.308Z,24.58
2023-08-06T04:27:51.600Z,24.60
2023-08-06T04:30:20.892Z,24.64
2023-08-06T04:32:51.979Z,24.65
2023-08-06T04:35:22.560Z,24.65
2023-08-06T04:37:51.927Z,24.65
2023-08-06T04:40:20.992Z,24.77
2023-08-06T04:42:50.253Z,24.82
2023-08-06T04:45:20.570Z,24.84
2023-08-06T04:47:49.621Z,24.99
2023-08-06T04:50:18.918Z,24.98
2023-08-06T04:52:49.428Z,25.13
2023-08-06T04:55:18.889Z,25.20
2023-08-06T04:57:48.681Z,25.34
2023-08-06T05:00:17.795Z,25.40
2023-08-06T05:02:46.873Z,25.52
2023-08-06T05:05:16.071Z,25.61
2023-08-06T05:07:45.381Z,25.74
2023-08-06T05:10:15.851Z,25.85
2023-08-06T05:12:45.024Z,25.91
2023-08-06T05:15:14.108Z,25.93
2023-08-06T05:17:43.245Z,26.00
2023-08-06T05:20:13.882Z,26.10
2023-08-06T05:22:42.960Z,26.18
2023-08-06T05:25:12.127Z,26.27
2023-08-06T05:27:42.613Z,26.36
2023-08-06T05:30:12.821Z,26.36
2023-08-06T05:32:41.862Z,26.40
2023-08-06T05:35:11.184Z,26.39
2023-08-06T05:37:40.195Z,26.37
2023-08-06T05:40:10.417Z,26.52
2023-08-06T05:42:39.485Z,26.60
2023-08-06T05:45:11.497Z,26.85
2023-08-06T05:47:40.557Z,27.00
2023-08-06T05:50:11.317Z,27.03
2023-08-06T05:52:40.464Z,27.14
2023-08-06T05:55:10.324Z,27.29
2023-08-06T05:57:39.321Z,27.18
2023-08-06T06:00:11.212Z,27.28
2023-08-06T06:02:42.733Z,27.61
2023-08-06T06:05:11.690Z,27.49
2023-08-06T06:07:40.975Z,27.22
2023-08-06T06:10:10.955Z,27.34
2023-08-06T06:12:41.427Z,27.58
2023-08-06T06:15:12.579Z,27.68
2023-08-06T06:17:41.820Z,27.65
2023-08-06T06:20:11.404Z,27.74
2023-08-06T06:22:40.449Z,27.88
2023-08-06T06:25:10.976Z,27.78
2023-08-06T06:27:40.027Z,27.93
2023-08-06T06:30:13.269Z,28.10
2023-08-06T06:32:42.413Z,28.14
2023-08-06T06:35:12.573Z,28.10
2023-08-06T06:37:41.837Z,28.14
2023-08-06T06:40:11.608Z,28.24
2023-08-06T06:42:40.732Z,28.45
2023-08-06T06:45:13.358Z,28.61
2023-08-06T06:47:42.465Z,28.52
2023-08-06T06:50:12.126Z,28.21
2023-08-06T06:52:41.225Z,28.27
2023-08-06T06:55:10.879Z,28.44
2023-08-06T06:57:40.315Z,28.74
2023-08-06T07:00:10.490Z,29.01
2023-08-06T07:02:41.060Z,29.30
2023-08-06T07:05:10.828Z,29.45
2023-08-06T07:07:40.062Z,29.36
2023-08-06T07:10:09.962Z,29.50
2023-08-06T07:12:39.239Z,29.56
2023-08-06T07:15:15.678Z,29.58
2023-08-06T07:17:46.325Z,29.65
2023-08-06T07:20:15.503Z,29.77
2023-08-06T07:22:45.148Z,29.87
2023-08-06T07:25:14.452Z,29.82
2023-08-06T07:27:43.847Z,29.90
2023-08-06T07:30:13.645Z,29.99
2023-08-06T07:32:42.658Z,29.83
2023-08-06T07:35:15.789Z,29.61
2023-08-06T07:37:44.858Z,29.81
2023-08-06T07:40:15.032Z,29.99
2023-08-06T07:42:44.011Z,30.04
2023-08-06T07:45:13.300Z,29.96
2023-08-06T07:47:42.746Z,30.04
2023-08-06T07:50:13.340Z,30.32
2023-08-06T07:52:42.417Z,30.48
2023-08-06T07:55:11.651Z,30.38
2023-08-06T07:57:40.712Z,30.34
2023-08-06T08:00:10.821Z,30.35
2023-08-06T08:02:42.641Z,30.27
2023-08-06T08:05:13.130Z,30.29
2023-08-06T08:07:42.296Z,30.32
2023-08-06T08:10:11.547Z,30.45
2023-08-06T08:12:40.588Z,30.60
2023-08-06T08:15:10.228Z,30.63
2023-08-06T08:17:39.234Z,30.55
2023-08-06T08:20:09.276Z,30.70
2023-08-06T08:22:40.008Z,30.65
2023-08-06T08:25:09.296Z,30.68
2023-08-06T08:27:38.359Z,30.75
2023-08-06T08:30:08.798Z,30.65
2023-08-06T08:32:37.815Z,30.79
2023-08-06T08:35:07.292Z,30.94
2023-08-06T08:37:37.493Z,30.97
2023-08-06T08:40:17.524Z,31.02
2023-08-06T08:42:46.505Z,31.08
2023-08-06T08:45:16.561Z,31.10
2023-08-06T08:47:47.486Z,31.15
2023-08-06T08:50:16.647Z,31.20
2023-08-06T08:52:47.754Z,31.24
2023-08-06T08:55:18.849Z,31.36
2023-08-06T08:57:48.557Z,31.41
2023-08-06T09:00:18.987Z,31.40
2023-08-06T09:02:48.943Z,31.39
2023-08-06T09:05:19.163Z,31.22
2023-08-06T09:07:51.408Z,31.09
2023-08-06T09:10:24.750Z,31.31
2023-08-06T09:12:55.583Z,31.52
2023-08-06T09:15:26.913Z,31.60
2023-08-06T09:17:56.556Z,31.64
2023-08-06T09:20:26.014Z,31.61
2023-08-06T09:22:55.757Z,31.52
2023-08-06T09:25:28.084Z,31.58
2023-08-06T09:27:57.215Z,31.63
2023-08-06T09:30:33.563Z,31.65
2023-08-06T09:33:02.965Z,31.57
2023-08-06T09:35:33.691Z,31.48
2023-08-06T09:38:11.757Z,31.49
2023-08-06T09:40:42.898Z,31.70
2023-08-06T09:43:14.320Z,31.91
2023-08-06T09:45:45.058Z,31.94
2023-08-06T09:48:14.248Z,31.63
2023-08-06T09:50:43.594Z,31.52
2023-08-06T09:53:12.680Z,31.62
2023-08-06T09:55:43.316Z,31.84
2023-08-06T09:58:12.499Z,31.88
2023-08-06T10:00:41.644Z,31.62
2023-08-06T10:03:15.253Z,31.49
2023-08-06T10:05:48.153Z,31.49
2023-08-06T10:08:18.473Z,31.77
2023-08-06T10:10:49.086Z,31.95
2023-08-06T10:13:21.036Z,32.16
2023-08-06T10:15:51.162Z,32.33
2023-08-06T10:18:22.589Z,32.41
2023-08-06T10:20:51.821Z,32.53
2023-08-06T10:23:22.319Z,32.47
2023-08-06T10:25:57.956Z,31.99
2023-08-06T10:28:36.972Z,32.04
2023-08-06T10:31:07.014Z,32.18
2023-08-06T10:33:53.687Z,32.39
2023-08-06T10:36:22.744Z,32.50
2023-08-06T10:38:52.845Z,32.46
2023-08-06T10:41:30.966Z,32.54
2023-08-06T10:44:09.674Z,32.60
2023-08-06T10:46:39.469Z,32.85
2023-08-06T10:49:08.808Z,33.13
2023-08-06T10:51:39.103Z,33.31
2023-08-06T10:54:08.433Z,32.86
2023-08-06T10:56:43.002Z,32.98
2023-08-06T10:59:12.612Z,33.05
2023-08-06T11:01:41.955Z,32.96
2023-08-06T11:04:17.064Z,32.71
2023-08-06T11:06:46.094Z,32.36
2023-08-06T11:09:15.199Z,32.16
2023-08-06T11:11:46.220Z,32.40
2023-08-06T11:14:18.022Z,32.54
2023-08-06T11:16:47.167Z,32.73
2023-08-06T11:19:17.462Z,32.86
2023-08-06T11:21:48.854Z,32.96
2023-08-06T11:24:17.986Z,32.79
2023-08-06T11:26:48.460Z,32.87
2023-08-06T11:29:18.229Z,33.13
2023-08-06T11:31:47.256Z,32.81
2023-08-06T11:34:16.341Z,32.16
2023-08-06T11:36:46.884Z,31.97
2023-08-06T11:39:15.978Z,32.27
2023-08-06T11:41:46.191Z,32.41
2023-08-06T11:44:17.959Z,32.70
2023-08-06T11:46:54.573Z,32.96
2023-08-06T11:49:39.353Z,33.30
2023-08-06T11:52:16.221Z,33.39
2023-08-06T11:54:45.293Z,32.95
2023-08-06T11:57:16.079Z,32.33
2023-08-06T11:59:48.447Z,32.01
2023-08-06T12:02:18.549Z,32.01
2023-08-06T12:05:07.457Z,32.03
2023-08-06T12:07:40.713Z,32.04
2023-08-06T12:10:10.709Z,32.04
2023-08-06T12:12:39.914Z,32.12
2023-08-06T12:15:11.961Z,32.34
2023-08-06T12:17:41.891Z,32.45
2023-08-06T12:20:12.057Z,32.53
2023-08-06T12:22:41.726Z,32.59
2023-08-06T12:25:13.067Z,32.83
2023-08-06T12:27:44.117Z,33.28
2023-08-06T12:30:15.329Z,33.09
2023-08-06T12:32:44.525Z,32.94
2023-08-06T12:35:15.354Z,32.91
2023-08-06T12:37:45.336Z,33.05
2023-08-06T12:42:46.626Z,33.51
2023-08-06T12:45:17.087Z,33.60
2023-08-06T12:47:46.910Z,33.58
2023-08-06T12:50:16.246Z,33.55
2023-08-06T12:52:45.275Z,33.55
2023-08-06T12:55:14.399Z,33.32
2023-08-06T12:57:57.496Z,33.22
2023-08-06T13:00:29.629Z,33.18
2023-08-06T13:02:58.823Z,33.40
2023-08-06T13:05:27.896Z,33.55
2023-08-06T13:07:56.890Z,33.39
2023-08-06T13:10:27.094Z,33.38
2023-08-06T13:12:56.136Z,33.33
2023-08-06T13:15:25.179Z,33.26
2023-08-06T13:17:55.690Z,33.05
2023-08-06T13:20:25.096Z,32.80
2023-08-06T13:22:55.069Z,32.63
2023-08-06T13:25:24.304Z,32.56
2023-08-06T13:27:53.320Z,32.64
2023-08-06T13:30:24.346Z,32.65
2023-08-06T13:32:53.450Z,32.81
2023-08-06T13:35:24.403Z,32.76
2023-08-06T13:37:53.647Z,32.68
2023-08-06T13:40:23.036Z,32.71
2023-08-06T13:42:52.159Z,32.51
2023-08-06T13:45:21.476Z,32.40
2023-08-06T13:47:50.561Z,32.31
2023-08-06T13:50:20.344Z,32.02
2023-08-06T13:52:50.942Z,31.85
2023-08-06T13:55:19.921Z,31.76
2023-08-06T13:57:49.137Z,31.69
2023-08-06T14:00:18.145Z,31.64
2023-08-06T14:02:47.267Z,31.59
2023-08-06T14:05:16.391Z,31.61
2023-08-06T14:07:45.528Z,31.66
2023-08-06T14:10:16.085Z,31.67
2023-08-06T14:12:51.999Z,31.66
2023-08-06T14:15:27.191Z,31.66
2023-08-06T14:17:56.440Z,31.61
2023-08-06T14:20:25.612Z,31.54
2023-08-06T14:22:54.971Z,31.36
2023-08-06T14:25:25.580Z,31.27
2023-08-06T14:27:54.642Z,31.30
2023-08-06T14:30:23.723Z,31.26
2023-08-06T14:32:52.830Z,31.06
2023-08-06T14:35:21.838Z,30.93
2023-08-06T14:37:51.086Z,30.85
2023-08-06T14:40:20.325Z,30.82
2023-08-06T14:42:50.808Z,30.83
2023-08-06T14:45:19.832Z,30.73
2023-08-06T14:47:48.929Z,30.68
2023-08-06T14:50:18.483Z,30.73
2023-08-06T14:52:47.654Z,30.94
2023-08-06T14:55:25.160Z,30.94
2023-08-06T14:57:56.232Z,30.88
2023-08-06T15:00:25.616Z,30.76
2023-08-06T15:02:54.693Z,30.71
2023-08-06T15:05:23.835Z,30.91
2023-08-06T15:07:54.227Z,31.04
2023-08-06T15:10:27.918Z,31.11
2023-08-06T15:12:58.675Z,31.19
2023-08-06T15:15:29.318Z,31.21
2023-08-06T15:17:58.742Z,31.18
2023-08-06T15:20:27.981Z,31.26
2023-08-06T15:22:59.424Z,31.42
2023-08-06T15:25:28.901Z,31.34
2023-08-06T15:27:59.353Z,31.07
2023-08-06T15:30:28.454Z,30.96
2023-08-06T15:32:57.679Z,30.78
2023-08-06T15:35:26.734Z,30.61
2023-08-06T15:37:55.803Z,30.45
2023-08-06T15:40:24.952Z,30.30
2023-08-06T15:42:53.988Z,30.26
2023-08-06T15:45:24.460Z,30.26
2023-08-06T15:47:53.612Z,30.16
2023-08-06T15:50:22.855Z,30.08
2023-08-06T15:52:51.943Z,29.98
2023-08-06T15:55:21.332Z,29.90
2023-08-06T15:57:50.462Z,29.83
2023-08-06T16:00:19.638Z,29.81
2023-08-06T16:02:50.180Z,29.70
2023-08-06T16:05:20.122Z,29.60
2023-08-06T16:07:52.110Z,29.51
2023-08-06T16:10:21.423Z,29.41
2023-08-06T16:12:50.453Z,29.32
2023-08-06T16:15:20.977Z,29.22
2023-08-06T16:17:51.836Z,29.09
2023-08-06T16:20:20.955Z,29.00
2023-08-06T16:22:50.773Z,28.90
2023-08-06T16:25:20.112Z,28.82
2023-08-06T16:27:49.893Z,28.76
2023-08-06T16:30:19.190Z,28.70
2023-08-06T16:32:48.305Z,28.54
2023-08-06T16:35:19.013Z,28.47
2023-08-06T16:37:49.464Z,28.35
2023-08-06T16:40:18.943Z,28.15
2023-08-06T16:42:48.602Z,27.98
2023-08-06T16:45:17.830Z,27.82
2023-08-06T16:47:47.075Z,27.67
2023-08-06T16:50:16.754Z,27.52
2023-08-06T16:52:47.192Z,27.36
2023-08-06T16:55:16.732Z,27.20
2023-08-06T16:57:45.760Z,27.06
2023-08-06T17:00:15.139Z,26.87
2023-08-06T17:02:44.524Z,26.74
2023-08-06T17:05:13.637Z,26.63
2023-08-06T17:07:45.024Z,26.45
2023-08-06T17:10:15.635Z,26.33
2023-08-06T17:12:45.919Z,26.21
2023-08-06T17:15:15.025Z,26.05
2023-08-06T17:17:44.079Z,25.90
2023-08-06T17:20:14.149Z,25.73
2023-08-06T17:22:43.246Z,25.58
2023-08-06T17:25:12.445Z,25.52
2023-08-06T17:27:42.906Z,25.41
2023-08-06T17:30:12.832Z,25.25
2023-08-06T17:32:42.129Z,25.17
2023-08-06T17:35:11.430Z,25.08
2023-08-06T17:37:40.619Z,25.01
2023-08-06T17:40:11.101Z,24.95
2023-08-06T17:42:40.266Z,24.85
2023-08-06T17:45:11.639Z,24.82
2023-08-06T17:47:42.178Z,24.81
2023-08-06T17:50:11.976Z,24.77
2023-08-06T17:52:41.005Z,24.70
2023-08-06T17:55:10.797Z,24.66
2023-08-06T17:57:39.770Z,24.59
2023-08-06T18:01:16.470Z,24.48
2023-08-06T18:03:51.295Z,24.48
2023-08-06T18:06:20.123Z,24.42
2023-08-06T18:08:49.029Z,24.38
2023-08-06T18:11:19.137Z,24.27
2023-08-06T18:13:48.263Z,24.16
2023-08-06T18:16:17.458Z,24.11
2023-08-06T18:18:48.095Z,24.06
2023-08-06T18:21:18.554Z,24.05
2023-08-06T18:23:47.499Z,23.96
2023-08-06T18:26:16.600Z,23.86
2023-08-06T18:28:46.181Z,23.84
2023-08-06T18:31:15.283Z,23.82
2023-08-06T18:33:44.320Z,23.70
2023-08-06T18:36:14.878Z,23.65
2023-08-06T18:38:44.576Z,23.60
2023-08-06T18:41:13.696Z,23.54
2023-08-06T18:43:42.707Z,23.50
2023-08-06T18:46:11.888Z,23.43
2023-08-06T18:48:40.963Z,23.40
2023-08-06T18:51:14.421Z,23.32
2023-08-06T18:53:43.446Z,23.24
2023-08-06T18:56:12.457Z,23.21
2023-08-06T18:58:41.750Z,23.10
2023-08-06T19:01:11.186Z,22.96
2023-08-06T19:03:40.329Z,22.87
2023-08-06T19:06:09.451Z,22.87
2023-08-06T19:08:41.010Z,22.85
2023-08-06T19:11:09.979Z,22.84
2023-08-06T19:13:39.038Z,22.81
2023-08-06T19:16:08.084Z,22.76
2023-08-06T19:18:38.207Z,22.74
2023-08-06T19:21:07.455Z,22.70
2023-08-06T19:23:36.504Z,22.63
2023-08-06T19:26:07.191Z,22.62
2023-08-06T19:28:36.513Z,22.55
2023-08-06T19:31:05.617Z,22.49
2023-08-06T19:33:34.749Z,22.42
2023-08-06T19:36:04.202Z,22.37
2023-08-06T19:38:33.903Z,22.32
2023-08-06T19:41:11.111Z,22.28
2023-08-06T19:43:40.652Z,22.22
2023-08-06T19:46:09.786Z,22.23
2023-08-06T19:48:39.794Z,22.20
2023-08-06T19:51:08.952Z,22.27
2023-08-06T19:53:40.415Z,22.22
2023-08-06T19:56:10.822Z,22.23
2023-08-06T19:58:39.942Z,22.19
2023-08-06T20:01:10.698Z,22.12
2023-08-06T20:03:44.546Z,22.07
2023-08-06T20:06:14.395Z,22.08
2023-08-06T20:08:43.405Z,22.03
2023-08-06T20:11:13.868Z,21.95
2023-08-06T20:13:43.014Z,21.94
2023-08-06T20:16:13.268Z,21.95
2023-08-06T20:18:42.890Z,21.96
2023-08-06T20:21:12.209Z,21.94
2023-08-06T20:23:41.324Z,21.94
2023-08-06T20:26:10.698Z,21.97
2023-08-06T20:28:42.111Z,21.93
2023-08-06T20:31:11.473Z,21.86
2023-08-06T20:33:40.704Z,21.92
2023-08-06T20:36:09.961Z,21.94
2023-08-06T20:38:39.278Z,21.91
2023-08-06T20:41:08.914Z,21.89
2023-08-06T20:43:42.253Z,21.86
2023-08-06T20:46:14.975Z,21.83
2023-08-06T20:48:50.734Z,21.84
2023-08-06T20:51:58.789Z,21.83
2023-08-06T20:54:58.920Z,21.75
2023-08-06T20:57:30.145Z,21.72
2023-08-06T21:00:01.754Z,21.72
2023-08-06T21:02:34.963Z,21.77
2023-08-06T21:05:04.227Z,21.76
2023-08-06T21:07:37.408Z,21.73
2023-08-06T21:10:07.067Z,21.74
2023-08-06T21:12:36.049Z,21.70
2023-08-06T21:15:05.344Z,21.65
2023-08-06T21:17:59.152Z,21.59
2023-08-06T21:20:30.249Z,21.61
2023-08-06T21:22:59.327Z,21.59
2023-08-06T21:25:28.376Z,21.58
2023-08-06T21:27:57.521Z,21.56
2023-08-06T21:30:26.569Z,21.49
2023-08-06T21:32:58.769Z,21.40
2023-08-06T21:35:29.589Z,21.38
2023-08-06T21:37:58.944Z,21.32
2023-08-06T21:40:28.027Z,21.25
2023-08-06T21:42:57.113Z,21.28
2023-08-06T21:45:26.139Z,21.26
2023-08-06T21:47:56.633Z,21.20
2023-08-06T21:50:25.797Z,21.20
2023-08-06T21:52:54.704Z,21.21
2023-08-06T21:55:23.711Z,21.17
2023-08-06T21:57:52.819Z,21.09
2023-08-06T22:00:22.033Z,21.04
2023-08-06T22:02:51.061Z,20.97
2023-08-06T22:05:21.725Z,20.90
2023-08-06T22:07:50.737Z,20.85
2023-08-06T22:10:19.726Z,20.89
2023-08-06T22:12:48.625Z,20.91
2023-08-06T22:15:17.631Z,20.83
2023-08-06T22:17:46.783Z,20.81
2023-08-06T22:20:17.153Z,20.80
2023-08-06T22:22:47.638Z,20.81
2023-08-06T22:25:16.753Z,20.77
2023-08-06T22:27:45.738Z,20.67
2023-08-06T22:30:16.043Z,20.61
2023-08-06T22:32:45.158Z,20.58
2023-08-06T22:35:16.342Z,20.54
2023-08-06T22:37:45.499Z,20.45
2023-08-06T22:40:16.384Z,20.40
2023-08-06T22:42:45.605Z,20.35
2023-08-06T22:45:15.968Z,20.27
2023-08-06T22:47:45.257Z,20.19
2023-08-06T22:50:14.354Z,20.15
2023-08-06T22:52:44.606Z,20.11
2023-08-06T22:55:26.943Z,20.13
2023-08-06T22:58:03.919Z,20.13
2023-08-06T23:00:33.146Z,20.12
2023-08-06T23:03:09.889Z,20.06
2023-08-06T23:05:40.413Z,20.07
2023-08-06T23:08:09.545Z,20.07
2023-08-06T23:10:39.291Z,20.05
2023-08-06T23:13:09.736Z,19.97
2023-08-06T23:15:38.933Z,19.95
2023-08-06T23:18:08.232Z,19.96
2023-08-06T23:20:38.113Z,19.93
2023-08-06T23:23:07.219Z,19.94
2023-08-06T23:25:37.212Z,19.91
2023-08-06T23:28:06.622Z,19.86
2023-08-06T23:30:37.211Z,19.84
2023-08-06T23:33:06.312Z,19.79
2023-08-06T23:35:35.318Z,19.78
2023-08-06T23:38:07.386Z,19.79
2023-08-06T23:40:36.626Z,19.72
2023-08-06T23:43:05.993Z,19.66
2023-08-06T23:45:36.404Z,19.65
2023-08-06T23:48:05.804Z,19.57
2023-08-06T23:50:35.113Z,19.48
2023-08-06T23:53:04.087Z,19.45
2023-08-06T23:55:33.550Z,19.41
2023-08-06T23:58:02.743Z,19.39
